sensor_id;sensor_type;location;lat;lon;timestamp;temperature;humidity
68804;SHT31;55787;52.678;13.314;2022-08-03T00:01:47;17.76;77.11
68804;SHT31;55787;52.678;13.314;2022-08-03T00:04:13;17.79;76.44
68804;SHT31;55787;52.678;13.314;2022-08-03T00:06:40;17.80;75.65
68804;SHT31;55787;52.678;13.314;2022-08-03T00:09:07;17.80;76.25
68804;SHT31;55787;52.678;13.314;2022-08-03T00:11:34;17.83;76.37
68804;SHT31;55787;52.678;13.314;2022-08-03T00:14:00;17.83;75.89
68804;SHT31;55787;52.678;13.314;2022-08-03T00:16:27;17.85;76.79
68804;SHT31;55787;52.678;13.314;2022-08-03T00:18:53;17.82;76.48
68804;SHT31;55787;52.678;13.314;2022-08-03T00:21:20;17.80;76.85
68804;SHT31;55787;52.678;13.314;2022-08-03T00:23:46;17.78;76.35
68804;SHT31;55787;52.678;13.314;2022-08-03T00:26:19;17.79;76.48
68804;SHT31;55787;52.678;13.314;2022-08-03T00:28:45;17.76;76.99
68804;SHT31;55787;52.678;13.314;2022-08-03T00:31:12;17.75;76.55
68804;SHT31;55787;52.678;13.314;2022-08-03T00:33:39;17.76;76.91
68804;SHT31;55787;52.678;13.314;2022-08-03T00:36:25;17.76;76.90
68804;SHT31;55787;52.678;13.314;2022-08-03T00:38:51;17.76;76.71
68804;SHT31;55787;52.678;13.314;2022-08-03T00:41:18;17.78;77.04
68804;SHT31;55787;52.678;13.314;2022-08-03T00:43:44;17.72;77.22
68804;SHT31;55787;52.678;13.314;2022-08-03T00:46:12;17.68;76.83
68804;SHT31;55787;52.678;13.314;2022-08-03T00:48:46;17.65;76.78
68804;SHT31;55787;52.678;13.314;2022-08-03T00:51:12;17.61;77.37
68804;SHT31;55787;52.678;13.314;2022-08-03T00:53:39;17.55;77.54
68804;SHT31;55787;52.678;13.314;2022-08-03T00:56:06;17.49;77.05
68804;SHT31;55787;52.678;13.314;2022-08-03T00:58:32;17.42;75.71
68804;SHT31;55787;52.678;13.314;2022-08-03T01:00:58;17.39;76.13
68804;SHT31;55787;52.678;13.314;2022-08-03T01:03:25;17.34;76.58
68804;SHT31;55787;52.678;13.314;2022-08-03T01:05:54;17.32;76.39
68804;SHT31;55787;52.678;13.314;2022-08-03T01:16:28;17.25;75.74
68804;SHT31;55787;52.678;13.314;2022-08-03T01:22:36;17.36;75.22
68804;SHT31;55787;52.678;13.314;2022-08-03T01:25:09;17.43;75.22
68804;SHT31;55787;52.678;13.314;2022-08-03T01:30:29;17.52;74.43
68804;SHT31;55787;52.678;13.314;2022-08-03T01:33:05;17.55;74.20
68804;SHT31;55787;52.678;13.314;2022-08-03T01:35:46;17.58;74.36
68804;SHT31;55787;52.678;13.314;2022-08-03T01:38:24;17.61;73.89
68804;SHT31;55787;52.678;13.314;2022-08-03T01:40:53;17.63;73.79
68804;SHT31;55787;52.678;13.314;2022-08-03T01:43:24;17.65;73.37
68804;SHT31;55787;52.678;13.314;2022-08-03T01:46:13;17.66;72.58
68804;SHT31;55787;52.678;13.314;2022-08-03T01:48:41;17.69;72.54
68804;SHT31;55787;52.678;13.314;2022-08-03T01:51:09;17.68;72.69
68804;SHT31;55787;52.678;13.314;2022-08-03T01:53:37;17.68;72.25
68804;SHT31;55787;52.678;13.314;2022-08-03T01:56:05;17.69;72.87
68804;SHT31;55787;52.678;13.314;2022-08-03T01:58:34;17.71;72.62
68804;SHT31;55787;52.678;13.314;2022-08-03T02:01:02;17.69;72.30
68804;SHT31;55787;52.678;13.314;2022-08-03T02:03:31;17.72;71.80
68804;SHT31;55787;52.678;13.314;2022-08-03T02:05:59;17.73;72.20
68804;SHT31;55787;52.678;13.314;2022-08-03T02:08:48;17.75;72.28
68804;SHT31;55787;52.678;13.314;2022-08-03T02:11:15;17.76;72.62
68804;SHT31;55787;52.678;13.314;2022-08-03T02:13:42;17.75;72.38
68804;SHT31;55787;52.678;13.314;2022-08-03T02:16:10;17.75;72.08
68804;SHT31;55787;52.678;13.314;2022-08-03T02:18:38;17.73;72.83
68804;SHT31;55787;52.678;13.314;2022-08-03T02:21:06;17.75;73.06
68804;SHT31;55787;52.678;13.314;2022-08-03T02:23:37;17.71;73.49
68804;SHT31;55787;52.678;13.314;2022-08-03T02:26:06;17.69;72.32
68804;SHT31;55787;52.678;13.314;2022-08-03T02:28:36;17.65;72.39
68804;SHT31;55787;52.678;13.314;2022-08-03T02:31:06;17.62;73.35
68804;SHT31;55787;52.678;13.314;2022-08-03T02:33:40;17.58;73.52
68804;SHT31;55787;52.678;13.314;2022-08-03T02:36:10;17.56;73.72
68804;SHT31;55787;52.678;13.314;2022-08-03T02:38:40;17.52;72.57
68804;SHT31;55787;52.678;13.314;2022-08-03T02:41:12;17.48;72.94
68804;SHT31;55787;52.678;13.314;2022-08-03T02:43:42;17.43;73.15
68804;SHT31;55787;52.678;13.314;2022-08-03T02:46:32;17.43;73.01
68804;SHT31;55787;52.678;13.314;2022-08-03T02:49:01;17.38;73.43
68804;SHT31;55787;52.678;13.314;2022-08-03T02:51:49;17.35;74.11
68804;SHT31;55787;52.678;13.314;2022-08-03T02:54:18;17.32;74.31
68804;SHT31;55787;52.678;13.314;2022-08-03T02:56:47;17.28;74.17
68804;SHT31;55787;52.678;13.314;2022-08-03T02:59:14;17.25;73.90
68804;SHT31;55787;52.678;13.314;2022-08-03T03:01:43;17.17;73.30
68804;SHT31;55787;52.678;13.314;2022-08-03T03:04:10;17.04;73.71
68804;SHT31;55787;52.678;13.314;2022-08-03T03:06:38;17.00;74.08
68804;SHT31;55787;52.678;13.314;2022-08-03T03:09:05;16.91;74.72
68804;SHT31;55787;52.678;13.314;2022-08-03T03:11:35;16.83;74.91
68804;SHT31;55787;52.678;13.314;2022-08-03T03:14:03;16.76;75.43
68804;SHT31;55787;52.678;13.314;2022-08-03T03:16:34;16.69;75.44
68804;SHT31;55787;52.678;13.314;2022-08-03T03:19:01;16.62;76.23
68804;SHT31;55787;52.678;13.314;2022-08-03T03:21:29;16.55;75.90
68804;SHT31;55787;52.678;13.314;2022-08-03T03:23:56;16.48;75.69
68804;SHT31;55787;52.678;13.314;2022-08-03T03:26:23;16.40;75.99
68804;SHT31;55787;52.678;13.314;2022-08-03T03:28:50;16.34;76.10
68804;SHT31;55787;52.678;13.314;2022-08-03T03:31:16;16.32;76.49
68804;SHT31;55787;52.678;13.314;2022-08-03T03:33:43;16.29;77.84
68804;SHT31;55787;52.678;13.314;2022-08-03T03:36:09;16.25;77.67
68804;SHT31;55787;52.678;13.314;2022-08-03T03:38:36;16.22;77.44
68804;SHT31;55787;52.678;13.314;2022-08-03T03:41:04;16.16;77.42
68804;SHT31;55787;52.678;13.314;2022-08-03T03:43:31;16.13;77.35
68804;SHT31;55787;52.678;13.314;2022-08-03T03:45:58;16.12;77.26
68804;SHT31;55787;52.678;13.314;2022-08-03T03:48:24;16.09;77.43
68804;SHT31;55787;52.678;13.314;2022-08-03T03:50:51;16.09;77.64
68804;SHT31;55787;52.678;13.314;2022-08-03T03:53:18;16.08;77.78
68804;SHT31;55787;52.678;13.314;2022-08-03T03:55:45;16.06;77.77
68804;SHT31;55787;52.678;13.314;2022-08-03T03:58:28;16.05;78.77
68804;SHT31;55787;52.678;13.314;2022-08-03T04:00:55;16.06;77.99
68804;SHT31;55787;52.678;13.314;2022-08-03T04:03:22;16.04;78.16
68804;SHT31;55787;52.678;13.314;2022-08-03T04:05:48;16.06;78.37
68804;SHT31;55787;52.678;13.314;2022-08-03T04:08:33;16.06;78.35
68804;SHT31;55787;52.678;13.314;2022-08-03T04:11:21;16.08;79.13
68804;SHT31;55787;52.678;13.314;2022-08-03T04:14:08;16.08;79.58
68804;SHT31;55787;52.678;13.314;2022-08-03T04:16:39;16.06;78.96
68804;SHT31;55787;52.678;13.314;2022-08-03T04:19:16;16.06;78.95
68804;SHT31;55787;52.678;13.314;2022-08-03T04:21:50;16.09;80.05
68804;SHT31;55787;52.678;13.314;2022-08-03T04:24:18;16.12;79.68
68804;SHT31;55787;52.678;13.314;2022-08-03T04:26:46;16.12;79.47
68804;SHT31;55787;52.678;13.314;2022-08-03T04:29:18;16.16;79.71
68804;SHT31;55787;52.678;13.314;2022-08-03T04:31:47;16.16;79.02
68804;SHT31;55787;52.678;13.314;2022-08-03T04:34:14;16.22;79.01
68804;SHT31;55787;52.678;13.314;2022-08-03T04:36:47;16.28;78.99
68804;SHT31;55787;52.678;13.314;2022-08-03T04:39:22;16.32;78.49
68804;SHT31;55787;52.678;13.314;2022-08-03T04:41:57;16.36;78.58
68804;SHT31;55787;52.678;13.314;2022-08-03T04:44:36;16.43;78.59
68804;SHT31;55787;52.678;13.314;2022-08-03T04:47:03;16.55;78.55
68804;SHT31;55787;52.678;13.314;2022-08-03T04:49:29;16.59;78.04
68804;SHT31;55787;52.678;13.314;2022-08-03T04:51:57;16.66;78.31
68804;SHT31;55787;52.678;13.314;2022-08-03T04:54:23;16.73;77.85
68804;SHT31;55787;52.678;13.314;2022-08-03T04:56:50;16.83;77.51
68804;SHT31;55787;52.678;13.314;2022-08-03T04:59:16;16.94;76.70
68804;SHT31;55787;52.678;13.314;2022-08-03T05:01:43;17.07;76.44
68804;SHT31;55787;52.678;13.314;2022-08-03T05:04:09;17.22;75.84
68804;SHT31;55787;52.678;13.314;2022-08-03T05:06:36;17.36;75.01
68804;SHT31;55787;52.678;13.314;2022-08-03T05:09:13;17.53;74.63
68804;SHT31;55787;52.678;13.314;2022-08-03T05:11:40;17.69;74.18
68804;SHT31;55787;52.678;13.314;2022-08-03T05:14:07;17.82;73.58
68804;SHT31;55787;52.678;13.314;2022-08-03T05:16:33;17.94;72.73
68804;SHT31;55787;52.678;13.314;2022-08-03T05:19:00;18.13;71.86
68804;SHT31;55787;52.678;13.314;2022-08-03T05:21:26;18.27;71.48
68804;SHT31;55787;52.678;13.314;2022-08-03T05:24:12;18.44;71.45
68804;SHT31;55787;52.678;13.314;2022-08-03T05:26:39;18.64;70.80
68804;SHT31;55787;52.678;13.314;2022-08-03T05:29:05;18.85;70.32
68804;SHT31;55787;52.678;13.314;2022-08-03T05:31:32;19.01;69.85
68804;SHT31;55787;52.678;13.314;2022-08-03T05:33:58;19.18;69.29
68804;SHT31;55787;52.678;13.314;2022-08-03T05:36:24;19.37;68.48
68804;SHT31;55787;52.678;13.314;2022-08-03T05:38:51;19.53;67.96
68804;SHT31;55787;52.678;13.314;2022-08-03T05:41:17;19.73;67.93
68804;SHT31;55787;52.678;13.314;2022-08-03T05:43:46;19.94;66.15
68804;SHT31;55787;52.678;13.314;2022-08-03T05:46:12;20.10;65.86
68804;SHT31;55787;52.678;13.314;2022-08-03T05:48:39;20.26;65.00
68804;SHT31;55787;52.678;13.314;2022-08-03T05:51:06;20.53;63.67
68804;SHT31;55787;52.678;13.314;2022-08-03T05:53:37;20.76;62.19
68804;SHT31;55787;52.678;13.314;2022-08-03T05:56:04;21.00;61.02
68804;SHT31;55787;52.678;13.314;2022-08-03T05:58:40;21.18;60.99
68804;SHT31;55787;52.678;13.314;2022-08-03T06:01:07;21.68;59.61
68804;SHT31;55787;52.678;13.314;2022-08-03T06:03:33;23.30;55.97
68804;SHT31;55787;52.678;13.314;2022-08-03T06:05:59;25.13;51.16
68804;SHT31;55787;52.678;13.314;2022-08-03T06:08:26;26.56;46.39
68804;SHT31;55787;52.678;13.314;2022-08-03T06:10:52;27.66;44.03
68804;SHT31;55787;52.678;13.314;2022-08-03T06:13:19;28.40;42.09
68804;SHT31;55787;52.678;13.314;2022-08-03T06:15:47;28.92;40.16
68804;SHT31;55787;52.678;13.314;2022-08-03T06:18:13;29.03;41.24
68804;SHT31;55787;52.678;13.314;2022-08-03T06:20:40;28.92;40.46
68804;SHT31;55787;52.678;13.314;2022-08-03T06:23:06;30.03;38.79
68804;SHT31;55787;52.678;13.314;2022-08-03T06:25:41;29.98;37.70
68804;SHT31;55787;52.678;13.314;2022-08-03T06:28:08;30.82;36.95
68804;SHT31;55787;52.678;13.314;2022-08-03T06:30:49;31.40;35.28
68804;SHT31;55787;52.678;13.314;2022-08-03T06:33:15;31.64;35.94
68804;SHT31;55787;52.678;13.314;2022-08-03T06:35:42;32.05;34.20
68804;SHT31;55787;52.678;13.314;2022-08-03T06:38:10;32.16;34.72
68804;SHT31;55787;52.678;13.314;2022-08-03T06:40:38;30.80;34.91
68804;SHT31;55787;52.678;13.314;2022-08-03T06:43:07;32.19;33.80
68804;SHT31;55787;52.678;13.314;2022-08-03T06:45:38;32.87;32.94
68804;SHT31;55787;52.678;13.314;2022-08-03T06:48:06;33.34;32.92
68804;SHT31;55787;52.678;13.314;2022-08-03T06:50:34;32.70;31.46
68804;SHT31;55787;52.678;13.314;2022-08-03T06:53:01;33.06;33.14
68804;SHT31;55787;52.678;13.314;2022-08-03T06:55:28;33.83;31.48
68804;SHT31;55787;52.678;13.314;2022-08-03T06:57:55;32.59;32.10
68804;SHT31;55787;52.678;13.314;2022-08-03T07:00:28;33.86;32.53
68804;SHT31;55787;52.678;13.314;2022-08-03T07:02:55;33.68;29.24
68804;SHT31;55787;52.678;13.314;2022-08-03T07:05:24;31.65;32.64
68804;SHT31;55787;52.678;13.314;2022-08-03T07:07:54;32.48;31.58
68804;SHT31;55787;52.678;13.314;2022-08-03T07:10:20;33.88;30.64
68804;SHT31;55787;52.678;13.314;2022-08-03T07:12:47;33.42;31.10
68804;SHT31;55787;52.678;13.314;2022-08-03T07:15:21;33.03;30.34
68804;SHT31;55787;52.678;13.314;2022-08-03T07:18:08;33.79;29.87
68804;SHT31;55787;52.678;13.314;2022-08-03T07:20:34;34.91;28.26
68804;SHT31;55787;52.678;13.314;2022-08-03T07:23:01;34.63;28.85
68804;SHT31;55787;52.678;13.314;2022-08-03T07:25:27;33.89;28.41
68804;SHT31;55787;52.678;13.314;2022-08-03T07:27:54;34.36;28.69
68804;SHT31;55787;52.678;13.314;2022-08-03T07:30:21;35.26;27.83
68804;SHT31;55787;52.678;13.314;2022-08-03T07:32:48;35.42;27.39
68804;SHT31;55787;52.678;13.314;2022-08-03T07:35:16;34.60;29.90
68804;SHT31;55787;52.678;13.314;2022-08-03T07:37:51;35.73;27.51
68804;SHT31;55787;52.678;13.314;2022-08-03T07:40:20;35.93;26.66
68804;SHT31;55787;52.678;13.314;2022-08-03T07:42:47;36.62;26.32
68804;SHT31;55787;52.678;13.314;2022-08-03T07:45:18;35.19;26.75
68804;SHT31;55787;52.678;13.314;2022-08-03T07:47:46;35.97;26.76
68804;SHT31;55787;52.678;13.314;2022-08-03T07:50:19;34.65;27.31
68804;SHT31;55787;52.678;13.314;2022-08-03T07:52:45;35.55;26.93
68804;SHT31;55787;52.678;13.314;2022-08-03T07:55:16;34.56;27.17
68804;SHT31;55787;52.678;13.314;2022-08-03T07:57:43;34.05;27.83
68804;SHT31;55787;52.678;13.314;2022-08-03T08:00:18;36.49;26.15
68804;SHT31;55787;52.678;13.314;2022-08-03T08:02:45;37.87;24.94
68804;SHT31;55787;52.678;13.314;2022-08-03T08:05:11;36.99;25.21
68804;SHT31;55787;52.678;13.314;2022-08-03T08:07:38;38.14;24.21
68804;SHT31;55787;52.678;13.314;2022-08-03T08:10:06;38.52;25.14
68804;SHT31;55787;52.678;13.314;2022-08-03T08:12:33;36.31;25.41
68804;SHT31;55787;52.678;13.314;2022-08-03T08:14:59;37.95;24.50
68804;SHT31;55787;52.678;13.314;2022-08-03T08:17:26;39.21;23.73
68804;SHT31;55787;52.678;13.314;2022-08-03T08:19:53;39.71;21.76
68804;SHT31;55787;52.678;13.314;2022-08-03T08:22:20;39.71;21.88
68804;SHT31;55787;52.678;13.314;2022-08-03T08:24:59;40.04;21.90
68804;SHT31;55787;52.678;13.314;2022-08-03T08:27:26;40.19;23.03
68804;SHT31;55787;52.678;13.314;2022-08-03T08:30:16;40.08;21.47
68804;SHT31;55787;52.678;13.314;2022-08-03T08:32:45;40.49;22.12
68804;SHT31;55787;52.678;13.314;2022-08-03T08:35:12;40.84;22.60
68804;SHT31;55787;52.678;13.314;2022-08-03T08:37:38;40.90;21.13
68804;SHT31;55787;52.678;13.314;2022-08-03T08:40:06;41.30;20.54
68804;SHT31;55787;52.678;13.314;2022-08-03T08:42:36;40.43;19.28
68804;SHT31;55787;52.678;13.314;2022-08-03T08:45:08;38.82;20.30
68804;SHT31;55787;52.678;13.314;2022-08-03T08:47:37;39.19;20.54
68804;SHT31;55787;52.678;13.314;2022-08-03T08:50:19;38.97;21.22
68804;SHT31;55787;52.678;13.314;2022-08-03T08:52:54;40.29;20.43
68804;SHT31;55787;52.678;13.314;2022-08-03T08:55:24;39.97;20.64
68804;SHT31;55787;52.678;13.314;2022-08-03T08:58:07;39.87;20.85
68804;SHT31;55787;52.678;13.314;2022-08-03T09:00:34;40.82;21.73
68804;SHT31;55787;52.678;13.314;2022-08-03T09:03:01;42.16;19.08
68804;SHT31;55787;52.678;13.314;2022-08-03T09:05:28;42.23;19.71
68804;SHT31;55787;52.678;13.314;2022-08-03T09:08:18;41.38;19.83
68804;SHT31;55787;52.678;13.314;2022-08-03T09:10:44;41.68;20.31
68804;SHT31;55787;52.678;13.314;2022-08-03T09:13:11;39.48;21.41
68804;SHT31;55787;52.678;13.314;2022-08-03T09:15:37;41.04;21.55
68804;SHT31;55787;52.678;13.314;2022-08-03T09:18:04;39.99;20.78
68804;SHT31;55787;52.678;13.314;2022-08-03T09:20:33;40.53;21.24
68804;SHT31;55787;52.678;13.314;2022-08-03T09:23:00;41.66;21.26
68804;SHT31;55787;52.678;13.314;2022-08-03T09:25:47;41.15;20.64
68804;SHT31;55787;52.678;13.314;2022-08-03T09:28:33;39.74;22.18
68804;SHT31;55787;52.678;13.314;2022-08-03T09:31:34;39.37;23.21
68804;SHT31;55787;52.678;13.314;2022-08-03T09:34:03;40.09;21.36
68804;SHT31;55787;52.678;13.314;2022-08-03T09:36:43;41.75;21.51
68804;SHT31;55787;52.678;13.314;2022-08-03T09:39:19;42.68;20.65
68804;SHT31;55787;52.678;13.314;2022-08-03T09:42:11;38.07;22.51
68804;SHT31;55787;52.678;13.314;2022-08-03T09:44:45;39.11;22.27
68804;SHT31;55787;52.678;13.314;2022-08-03T09:47:13;38.97;21.72
68804;SHT31;55787;52.678;13.314;2022-08-03T09:49:41;41.18;21.92
68804;SHT31;55787;52.678;13.314;2022-08-03T09:52:29;42.03;20.01
68804;SHT31;55787;52.678;13.314;2022-08-03T09:55:09;40.23;21.78
68804;SHT31;55787;52.678;13.314;2022-08-03T09:58:04;38.92;22.02
68804;SHT31;55787;52.678;13.314;2022-08-03T10:00:31;40.37;20.92
68804;SHT31;55787;52.678;13.314;2022-08-03T10:03:03;40.11;21.69
68804;SHT31;55787;52.678;13.314;2022-08-03T10:05:31;40.47;21.15
68804;SHT31;55787;52.678;13.314;2022-08-03T10:07:58;40.05;22.74
68804;SHT31;55787;52.678;13.314;2022-08-03T10:10:24;42.11;19.88
68804;SHT31;55787;52.678;13.314;2022-08-03T10:12:58;42.05;19.29
68804;SHT31;55787;52.678;13.314;2022-08-03T10:15:25;41.35;20.07
68804;SHT31;55787;52.678;13.314;2022-08-03T10:18:12;39.53;21.90
68804;SHT31;55787;52.678;13.314;2022-08-03T10:21:02;41.48;20.52
68804;SHT31;55787;52.678;13.314;2022-08-03T10:23:33;42.02;19.63
68804;SHT31;55787;52.678;13.314;2022-08-03T10:26:02;43.29;20.03
68804;SHT31;55787;52.678;13.314;2022-08-03T10:28:35;44.21;18.81
68804;SHT31;55787;52.678;13.314;2022-08-03T10:31:10;42.78;19.03
68804;SHT31;55787;52.678;13.314;2022-08-03T10:33:42;43.91;19.84
68804;SHT31;55787;52.678;13.314;2022-08-03T10:36:21;44.34;19.10
68804;SHT31;55787;52.678;13.314;2022-08-03T10:38:50;43.33;19.66
68804;SHT31;55787;52.678;13.314;2022-08-03T10:41:21;43.94;19.92
68804;SHT31;55787;52.678;13.314;2022-08-03T10:44:09;42.40;19.59
68804;SHT31;55787;52.678;13.314;2022-08-03T10:46:38;43.35;19.48
68804;SHT31;55787;52.678;13.314;2022-08-03T10:49:19;41.59;19.89
68804;SHT31;55787;52.678;13.314;2022-08-03T10:52:01;41.24;21.13
68804;SHT31;55787;52.678;13.314;2022-08-03T10:54:40;41.38;20.87
68804;SHT31;55787;52.678;13.314;2022-08-03T10:57:51;41.89;20.77
68804;SHT31;55787;52.678;13.314;2022-08-03T11:00:25;42.94;20.33
68804;SHT31;55787;52.678;13.314;2022-08-03T11:05:37;43.77;20.21
68804;SHT31;55787;52.678;13.314;2022-08-03T11:08:19;41.37;20.31
68804;SHT31;55787;52.678;13.314;2022-08-03T11:10:46;39.57;21.89
68804;SHT31;55787;52.678;13.314;2022-08-03T11:13:18;41.21;21.22
68804;SHT31;55787;52.678;13.314;2022-08-03T11:15:48;42.07;20.96
68804;SHT31;55787;52.678;13.314;2022-08-03T11:18:14;43.12;20.14
68804;SHT31;55787;52.678;13.314;2022-08-03T11:20:52;42.70;19.68
68804;SHT31;55787;52.678;13.314;2022-08-03T11:23:40;43.32;19.34
68804;SHT31;55787;52.678;13.314;2022-08-03T11:26:27;44.16;18.67
68804;SHT31;55787;52.678;13.314;2022-08-03T11:29:26;42.89;19.07
68804;SHT31;55787;52.678;13.314;2022-08-03T11:31:52;43.42;20.17
68804;SHT31;55787;52.678;13.314;2022-08-03T11:34:19;42.95;20.06
68804;SHT31;55787;52.678;13.314;2022-08-03T11:37:21;43.77;19.28
68804;SHT31;55787;52.678;13.314;2022-08-03T11:39:50;41.62;20.20
68804;SHT31;55787;52.678;13.314;2022-08-03T11:44:51;43.79;19.64
68804;SHT31;55787;52.678;13.314;2022-08-03T11:47:22;42.81;20.42
68804;SHT31;55787;52.678;13.314;2022-08-03T11:49:51;41.96;19.79
68804;SHT31;55787;52.678;13.314;2022-08-03T11:52:19;42.58;20.06
68804;SHT31;55787;52.678;13.314;2022-08-03T11:54:53;42.76;19.83
68804;SHT31;55787;52.678;13.314;2022-08-03T11:57:33;43.38;19.56
68804;SHT31;55787;52.678;13.314;2022-08-03T12:00:24;42.79;19.50
68804;SHT31;55787;52.678;13.314;2022-08-03T12:03:18;43.49;19.59
68804;SHT31;55787;52.678;13.314;2022-08-03T12:05:47;43.74;19.85
68804;SHT31;55787;52.678;13.314;2022-08-03T12:08:31;44.34;19.46
68804;SHT31;55787;52.678;13.314;2022-08-03T12:11:00;44.68;20.13
68804;SHT31;55787;52.678;13.314;2022-08-03T12:13:37;43.23;20.00
68804;SHT31;55787;52.678;13.314;2022-08-03T12:16:25;41.81;21.09
68804;SHT31;55787;52.678;13.314;2022-08-03T12:19:03;41.28;20.63
68804;SHT31;55787;52.678;13.314;2022-08-03T12:21:30;40.40;21.98
68804;SHT31;55787;52.678;13.314;2022-08-03T12:23:58;40.83;21.57
68804;SHT31;55787;52.678;13.314;2022-08-03T12:26:26;42.09;21.97
68804;SHT31;55787;52.678;13.314;2022-08-03T12:28:53;42.76;21.53
68804;SHT31;55787;52.678;13.314;2022-08-03T12:31:19;42.60;21.52
68804;SHT31;55787;52.678;13.314;2022-08-03T12:34:03;42.20;21.38
68804;SHT31;55787;52.678;13.314;2022-08-03T12:36:32;41.24;21.49
68804;SHT31;55787;52.678;13.314;2022-08-03T12:39:04;40.86;24.27
68804;SHT31;55787;52.678;13.314;2022-08-03T12:41:33;41.31;23.05
68804;SHT31;55787;52.678;13.314;2022-08-03T12:44:04;41.99;21.29
68804;SHT31;55787;52.678;13.314;2022-08-03T12:46:40;41.51;20.72
68804;SHT31;55787;52.678;13.314;2022-08-03T12:49:15;42.12;21.94
68804;SHT31;55787;52.678;13.314;2022-08-03T12:54:16;41.74;21.01
68804;SHT31;55787;52.678;13.314;2022-08-03T12:59:33;40.91;21.34
68804;SHT31;55787;52.678;13.314;2022-08-03T13:02:22;40.32;23.08
68804;SHT31;55787;52.678;13.314;2022-08-03T13:04:51;39.68;22.08
68804;SHT31;55787;52.678;13.314;2022-08-03T13:07:18;40.55;23.26
68804;SHT31;55787;52.678;13.314;2022-08-03T13:09:47;39.99;22.99
68804;SHT31;55787;52.678;13.314;2022-08-03T13:12:16;40.77;23.42
68804;SHT31;55787;52.678;13.314;2022-08-03T13:14:45;39.43;23.33
68804;SHT31;55787;52.678;13.314;2022-08-03T13:17:12;40.09;22.81
68804;SHT31;55787;52.678;13.314;2022-08-03T13:19:39;40.39;22.99
68804;SHT31;55787;52.678;13.314;2022-08-03T13:22:17;40.50;22.77
68804;SHT31;55787;52.678;13.314;2022-08-03T13:24:45;40.26;22.39
68804;SHT31;55787;52.678;13.314;2022-08-03T13:27:12;39.21;23.01
68804;SHT31;55787;52.678;13.314;2022-08-03T13:29:59;38.90;23.65
68804;SHT31;55787;52.678;13.314;2022-08-03T13:32:25;38.51;23.47
68804;SHT31;55787;52.678;13.314;2022-08-03T13:34:52;38.15;23.65
68804;SHT31;55787;52.678;13.314;2022-08-03T13:37:18;39.31;23.41
68804;SHT31;55787;52.678;13.314;2022-08-03T13:39:45;39.40;23.65
68804;SHT31;55787;52.678;13.314;2022-08-03T13:42:27;37.71;24.68
68804;SHT31;55787;52.678;13.314;2022-08-03T13:44:53;37.26;25.64
68804;SHT31;55787;52.678;13.314;2022-08-03T13:47:20;37.87;25.63
68804;SHT31;55787;52.678;13.314;2022-08-03T13:49:47;38.01;26.10
68804;SHT31;55787;52.678;13.314;2022-08-03T13:52:27;37.97;24.72
68804;SHT31;55787;52.678;13.314;2022-08-03T13:54:54;37.91;27.11
68804;SHT31;55787;52.678;13.314;2022-08-03T13:57:20;37.69;24.90
68804;SHT31;55787;52.678;13.314;2022-08-03T14:00:07;37.42;27.37
68804;SHT31;55787;52.678;13.314;2022-08-03T14:02:34;37.60;26.78
68804;SHT31;55787;52.678;13.314;2022-08-03T14:05:01;37.37;25.39
68804;SHT31;55787;52.678;13.314;2022-08-03T14:07:27;35.87;26.66
68804;SHT31;55787;52.678;13.314;2022-08-03T14:09:54;35.72;26.81
68804;SHT31;55787;52.678;13.314;2022-08-03T14:12:20;35.76;27.69
68804;SHT31;55787;52.678;13.314;2022-08-03T14:14:46;34.81;27.39
68804;SHT31;55787;52.678;13.314;2022-08-03T14:17:13;35.11;27.40
68804;SHT31;55787;52.678;13.314;2022-08-03T14:19:41;35.84;28.14
68804;SHT31;55787;52.678;13.314;2022-08-03T14:22:19;36.44;27.74
68804;SHT31;55787;52.678;13.314;2022-08-03T14:24:46;36.55;27.36
68804;SHT31;55787;52.678;13.314;2022-08-03T14:27:12;36.49;27.85
68804;SHT31;55787;52.678;13.314;2022-08-03T14:29:38;36.55;28.66
68804;SHT31;55787;52.678;13.314;2022-08-03T14:32:05;36.61;27.42
68804;SHT31;55787;52.678;13.314;2022-08-03T14:34:35;36.82;27.53
68804;SHT31;55787;52.678;13.314;2022-08-03T14:37:02;36.93;27.49
68804;SHT31;55787;52.678;13.314;2022-08-03T14:39:28;36.85;27.71
68804;SHT31;55787;52.678;13.314;2022-08-03T14:42:15;36.40;26.24
68804;SHT31;55787;52.678;13.314;2022-08-03T14:44:41;36.25;27.83
68804;SHT31;55787;52.678;13.314;2022-08-03T14:47:08;35.98;31.29
68804;SHT31;55787;52.678;13.314;2022-08-03T14:49:34;35.72;27.23
68804;SHT31;55787;52.678;13.314;2022-08-03T14:52:21;35.21;27.61
68804;SHT31;55787;52.678;13.314;2022-08-03T14:54:47;35.36;27.14
68804;SHT31;55787;52.678;13.314;2022-08-03T14:57:14;35.53;27.02
68804;SHT31;55787;52.678;13.314;2022-08-03T14:59:40;35.73;28.68
68804;SHT31;55787;52.678;13.314;2022-08-03T15:02:22;35.60;27.54
68804;SHT31;55787;52.678;13.314;2022-08-03T15:04:49;35.06;28.08
68804;SHT31;55787;52.678;13.314;2022-08-03T15:07:16;35.42;29.14
68804;SHT31;55787;52.678;13.314;2022-08-03T15:09:42;35.32;30.03
68804;SHT31;55787;52.678;13.314;2022-08-03T15:12:09;35.15;28.92
68804;SHT31;55787;52.678;13.314;2022-08-03T15:14:35;35.09;29.85
68804;SHT31;55787;52.678;13.314;2022-08-03T15:17:03;35.25;29.11
68804;SHT31;55787;52.678;13.314;2022-08-03T15:19:29;34.77;28.46
68804;SHT31;55787;52.678;13.314;2022-08-03T15:22:16;34.64;29.69
68804;SHT31;55787;52.678;13.314;2022-08-03T15:24:50;34.47;29.20
68804;SHT31;55787;52.678;13.314;2022-08-03T15:27:17;34.32;31.53
68804;SHT31;55787;52.678;13.314;2022-08-03T15:29:44;34.26;30.93
68804;SHT31;55787;52.678;13.314;2022-08-03T15:32:32;34.28;30.85
68804;SHT31;55787;52.678;13.314;2022-08-03T15:34:59;34.34;29.95
68804;SHT31;55787;52.678;13.314;2022-08-03T15:37:26;34.30;30.47
68804;SHT31;55787;52.678;13.314;2022-08-03T15:39:53;34.33;29.69
68804;SHT31;55787;52.678;13.314;2022-08-03T15:42:29;34.36;30.78
68804;SHT31;55787;52.678;13.314;2022-08-03T15:44:56;34.39;29.85
68804;SHT31;55787;52.678;13.314;2022-08-03T15:47:22;33.92;29.88
68804;SHT31;55787;52.678;13.314;2022-08-03T15:49:49;33.69;30.22
68804;SHT31;55787;52.678;13.314;2022-08-03T15:52:15;33.89;30.72
68804;SHT31;55787;52.678;13.314;2022-08-03T15:54:41;34.05;32.11
68804;SHT31;55787;52.678;13.314;2022-08-03T15:57:08;34.16;31.22
68804;SHT31;55787;52.678;13.314;2022-08-03T15:59:34;33.93;29.79
68804;SHT31;55787;52.678;13.314;2022-08-03T16:02:01;33.93;30.81
68804;SHT31;55787;52.678;13.314;2022-08-03T16:04:28;33.72;33.28